Darrington, WA (98241)

04:46 PM PDT die 02o September, anno 2015 (GMT -0700)
Glacier View Internet | | Change Station
CLOSE
Current Station
Personal Weather Stations
Location: Darrington, WA
Elevation: 549 ft
Nearby Weather Stations

Elev 549 ft 48.25 °N, 121.61 °W | Updated 1 minute ago

Plerumque Nubila
Plerumque Nubila
62.6 °F
Feels Like 62.6 °F
N
2.0
Ventus Variabilis Ventus from Magis Zephyrus quam Auster
Gusts 4.0 mph

Hodie
High -- | Low -- °F
--% Chance of Precip.
Yesterday
High -- | Low -- °F
Precip. -- in
6:25 AM 7:45 PM
Waning Gibbous, 76% visible
Pressio 29.90 in
Visibilitas 10.0 milia passuum
Clouds Nubes Dispersae 6000 ft
Aequaliter Nubila 7000 ft
Frigus in quo Ros apparet 51 °F
Umor 67%
Rainfall 0.51 in
Snow Depth Not available.
UV 1 out of 12
Pollen .50 out of 12
Air Quality Not available.
Flu Activity Not available.
METAR KAWO 022335Z 36009KT 10SM SCT060 OVC070 13/09 A2990 RMK AO1 LTG DSNT N TSB06E21
Pressio 29.90 in
Visibilitas 10.0 milia passuum
Clouds Nubes Dispersae 6000 ft
Aequaliter Nubila 7000 ft
Frigus in quo Ros apparet 51 °F
Umor 67%
Rainfall 0.51 in
Snow Depth Not available.
UV 1 out of 12
Pollen .50 out of 12
Air Quality Not available.
Flu Activity Not available.
METAR KAWO 022335Z 36009KT 10SM SCT060 OVC070 13/09 A2990 RMK AO1 LTG DSNT N TSB06E21

10-Day Weather Forecast

×

Almanac

Astronomy

Sep. 02, 2015 Rise Set
Actual Time
Civil Twilight
Nautical Twilight
Astronomical Twilight
Moon
Length Of Visible Light
Length of Day
Tomorrow will be .
, % of the Moon is Illuminated

Today's Extremes

State Highs State Lows

Community

WunderPhotos

Upload Photos

1,851,841 photos uploaded!

WunderBlogs® & News

Nearby

Air Quality

  Air Quality AQ Index Pollutant
Not available.

Snow Depth

Station Depth Elevation

Earthquake Activity

City Distance Mag. Time & Date
Minimum magnitude displayed is 2.5.

Coastal Water Temperatures

Locus Calor

Stations

Nearby Weather Stations

Station Location Temp Frigus Venti Frigus in quo Ros apparet Umor Ventus Precip. Elev Renovata Type